createdAt,value
2017-11-15T00:01:21.745Z,8.00
2017-11-15T00:03:50.040Z,7.70
2017-11-15T00:06:18.338Z,6.10
2017-11-15T00:08:46.607Z,5.97
2017-11-15T00:11:14.881Z,5.63
2017-11-15T00:13:43.149Z,6.10
2017-11-15T00:16:11.434Z,5.50
2017-11-15T00:18:39.705Z,6.30
2017-11-15T00:21:07.972Z,5.60
2017-11-15T00:23:36.263Z,5.80
2017-11-15T00:26:04.522Z,7.20
2017-11-15T00:28:32.808Z,6.70
2017-11-15T00:31:01.102Z,7.07
2017-11-15T00:33:29.390Z,7.03
2017-11-15T00:35:57.634Z,7.00
2017-11-15T00:38:25.916Z,7.20
2017-11-15T00:40:54.167Z,7.27
2017-11-15T00:43:22.447Z,7.27
2017-11-15T00:45:50.725Z,7.67
2017-11-15T00:48:19.019Z,7.80
2017-11-15T00:50:47.309Z,7.73
2017-11-15T00:53:15.569Z,8.60
2017-11-15T00:55:43.871Z,8.07
2017-11-15T00:58:12.134Z,8.43
2017-11-15T01:00:40.471Z,7.70
2017-11-15T01:03:08.722Z,8.83
2017-11-15T01:05:36.982Z,9.20
2017-11-15T01:08:05.293Z,9.50
2017-11-15T01:10:33.650Z,9.53
2017-11-15T01:13:01.905Z,9.27
2017-11-15T01:15:30.160Z,10.20
2017-11-15T01:17:58.451Z,9.70
2017-11-15T01:20:26.713Z,10.67
2017-11-15T01:22:54.994Z,10.47
2017-11-15T01:25:23.273Z,10.10
2017-11-15T01:27:51.557Z,9.50
2017-11-15T01:30:19.869Z,9.47
2017-11-15T01:32:48.206Z,9.67
2017-11-15T01:35:16.494Z,9.10
2017-11-15T01:37:44.755Z,8.63
2017-11-15T01:40:13.052Z,8.33
2017-11-15T01:42:41.308Z,8.90
2017-11-15T01:45:09.604Z,7.80
2017-11-15T01:47:37.860Z,9.40
2017-11-15T01:50:06.139Z,8.50
2017-11-15T01:52:34.399Z,8.83
2017-11-15T01:55:02.689Z,8.47
2017-11-15T01:57:30.968Z,9.23
2017-11-15T01:59:59.259Z,9.20
2017-11-15T02:02:27.509Z,9.63
2017-11-15T02:04:55.784Z,9.37
2017-11-15T02:07:24.057Z,9.37
2017-11-15T02:09:52.400Z,9.57
2017-11-15T02:12:20.661Z,8.90
2017-11-15T02:14:48.952Z,7.60
2017-11-15T02:17:17.552Z,8.00
2017-11-15T02:19:45.843Z,8.37
2017-11-15T02:22:14.084Z,9.53
2017-11-15T02:24:42.410Z,7.80
2017-11-15T02:27:10.682Z,8.67
2017-11-15T02:29:38.940Z,8.60
2017-11-15T02:32:07.228Z,8.63
2017-11-15T02:34:35.511Z,8.60
2017-11-15T02:37:03.775Z,7.10
2017-11-15T02:39:32.123Z,7.80
2017-11-15T02:42:00.340Z,7.70
2017-11-15T02:44:28.624Z,8.03
2017-11-15T02:46:56.887Z,8.27
2017-11-15T02:49:25.184Z,8.20
2017-11-15T02:51:53.442Z,6.80
2017-11-15T02:54:21.717Z,8.20
2017-11-15T02:56:49.972Z,7.30
2017-11-15T02:59:18.270Z,7.13
2017-11-15T03:01:46.518Z,6.33
2017-11-15T03:04:14.821Z,5.83
2017-11-15T03:06:43.070Z,6.07
2017-11-15T03:09:11.345Z,5.17
2017-11-15T03:11:39.600Z,4.83
2017-11-15T03:14:07.908Z,4.90
2017-11-15T03:16:36.212Z,5.60
2017-11-15T03:19:04.446Z,5.57
2017-11-15T03:21:32.712Z,6.57
2017-11-15T03:24:01.004Z,6.30
2017-11-15T03:26:29.264Z,6.07
2017-11-15T03:28:57.563Z,6.83
2017-11-15T03:31:26.513Z,5.27
2017-11-15T03:33:54.785Z,5.50
2017-11-15T03:36:23.025Z,5.57
2017-11-15T03:38:51.318Z,5.33
2017-11-15T03:41:19.642Z,5.13
2017-11-15T03:43:47.923Z,5.20
2017-11-15T03:46:16.162Z,5.27
2017-11-15T03:48:44.409Z,5.50
2017-11-15T03:51:12.680Z,6.00
2017-11-15T03:53:40.931Z,5.40
2017-11-15T03:56:09.221Z,5.60
2017-11-15T03:58:37.474Z,6.53
2017-11-15T04:01:05.724Z,6.93
2017-11-15T04:03:34.002Z,8.50
2017-11-15T04:06:02.270Z,9.00
2017-11-15T04:08:30.552Z,8.20
2017-11-15T04:10:58.821Z,7.80
2017-11-15T04:13:27.153Z,8.40
2017-11-15T04:15:55.401Z,8.23
2017-11-15T04:18:23.713Z,9.87
2017-11-15T04:20:51.973Z,7.93
2017-11-15T04:23:20.280Z,7.40
2017-11-15T04:25:48.545Z,6.07
2017-11-15T04:28:16.820Z,6.97
2017-11-15T04:30:45.107Z,7.10
2017-11-15T04:33:13.368Z,7.77
2017-11-15T04:35:42.326Z,7.17
2017-11-15T04:38:10.577Z,7.40
2017-11-15T04:40:38.891Z,6.70
2017-11-15T04:43:07.121Z,5.93
2017-11-15T04:45:35.372Z,5.97
2017-11-15T04:48:03.647Z,6.10
2017-11-15T04:50:31.909Z,7.10
2017-11-15T04:53:00.193Z,6.67
2017-11-15T04:55:28.465Z,7.73
2017-11-15T04:57:56.753Z,7.00
2017-11-15T05:00:24.999Z,6.23
2017-11-15T05:02:53.281Z,6.73
2017-11-15T05:05:21.566Z,7.43
2017-11-15T05:07:49.853Z,6.67
2017-11-15T05:10:18.211Z,6.20
2017-11-15T05:12:46.496Z,6.47
2017-11-15T05:15:14.742Z,6.40
2017-11-15T05:17:42.990Z,5.60
2017-11-15T05:20:11.268Z,5.70
2017-11-15T05:22:39.732Z,6.20
2017-11-15T05:25:08.015Z,6.50
2017-11-15T05:27:36.280Z,6.20
2017-11-15T05:30:04.570Z,5.43
2017-11-15T05:32:32.920Z,6.73
2017-11-15T05:35:01.164Z,5.40
2017-11-15T05:37:29.424Z,6.80
2017-11-15T05:39:57.705Z,5.90
2017-11-15T05:42:26.145Z,6.47
2017-11-15T05:44:54.403Z,6.97
2017-11-15T05:47:22.680Z,6.20
2017-11-15T05:49:50.958Z,6.47
2017-11-15T05:52:19.234Z,7.40
2017-11-15T05:54:47.485Z,7.37
2017-11-15T05:57:15.791Z,7.23
2017-11-15T05:59:44.050Z,7.53
2017-11-15T06:02:12.365Z,7.43
2017-11-15T06:04:40.614Z,7.20
2017-11-15T06:07:08.929Z,7.30
2017-11-15T06:09:37.306Z,7.45
2017-11-15T06:12:05.560Z,7.57
2017-11-15T06:14:33.812Z,6.90
2017-11-15T06:17:02.177Z,6.67
2017-11-15T06:19:31.293Z,7.60
2017-11-15T06:21:59.535Z,6.70
2017-11-15T06:24:27.819Z,10.10
2017-11-15T06:26:56.152Z,7.07
2017-11-15T06:29:24.481Z,7.00
2017-11-15T06:31:52.744Z,8.33
2017-11-15T06:34:21.086Z,7.33
2017-11-15T06:36:49.246Z,11.40
2017-11-15T06:39:19.317Z,9.20
2017-11-15T06:41:47.636Z,7.80
2017-11-15T06:44:15.914Z,7.93
2017-11-15T06:46:44.148Z,8.20
2017-11-15T06:49:12.437Z,8.57
2017-11-15T06:51:40.736Z,7.83
2017-11-15T06:54:09.023Z,6.83
2017-11-15T06:56:37.298Z,8.60
2017-11-15T06:59:05.958Z,7.37
2017-11-15T07:01:34.259Z,8.80
2017-11-15T07:04:02.589Z,8.80
2017-11-15T07:06:30.866Z,7.30
2017-11-15T07:08:59.145Z,7.90
2017-11-15T07:11:27.459Z,8.10
2017-11-15T07:13:55.703Z,7.90
2017-11-15T07:16:24.017Z,7.07
2017-11-15T07:18:52.273Z,9.50
2017-11-15T07:21:20.559Z,8.20
2017-11-15T07:23:48.844Z,7.77
2017-11-15T07:26:17.133Z,8.10
2017-11-15T07:28:45.441Z,8.10
2017-11-15T07:31:14.940Z,7.73
2017-11-15T07:33:43.197Z,6.63
2017-11-15T07:36:11.445Z,7.00
2017-11-15T07:38:39.748Z,7.13
2017-11-15T07:41:08.049Z,6.40
2017-11-15T07:43:36.337Z,5.73
2017-11-15T07:46:04.599Z,5.20
2017-11-15T07:48:32.886Z,6.00
2017-11-15T07:51:01.161Z,7.30
2017-11-15T07:53:29.466Z,6.70
2017-11-15T07:55:57.712Z,6.40
2017-11-15T07:58:26.033Z,5.80
2017-11-15T08:00:54.307Z,6.40
2017-11-15T08:03:22.685Z,5.20
2017-11-15T08:05:51.051Z,9.47
2017-11-15T08:08:19.305Z,5.97
2017-11-15T08:10:47.646Z,5.60
2017-11-15T08:13:16.491Z,6.23
2017-11-15T08:15:44.870Z,6.37
2017-11-15T08:18:13.195Z,6.50
2017-11-15T08:20:41.460Z,6.60
2017-11-15T08:23:10.412Z,6.87
2017-11-15T08:25:38.711Z,6.60
2017-11-15T08:28:06.973Z,6.37
2017-11-15T08:30:35.281Z,7.20
2017-11-15T08:33:03.652Z,7.47
2017-11-15T08:35:31.945Z,7.53
2017-11-15T08:38:00.285Z,8.40
2017-11-15T08:40:28.568Z,6.43
2017-11-15T08:42:56.851Z,8.13
2017-11-15T08:45:25.129Z,6.53
2017-11-15T08:47:53.407Z,7.00
2017-11-15T08:50:23.290Z,7.80
2017-11-15T08:52:51.606Z,8.97
2017-11-15T08:55:20.870Z,8.03
2017-11-15T08:57:49.230Z,9.10
2017-11-15T09:00:18.613Z,8.20
2017-11-15T09:02:46.904Z,8.93
2017-11-15T09:05:15.206Z,8.47
2017-11-15T09:07:43.496Z,8.97
2017-11-15T09:10:12.485Z,8.90
2017-11-15T09:12:40.802Z,8.90
2017-11-15T09:15:09.136Z,8.70
2017-11-15T09:17:37.409Z,9.43
2017-11-15T09:20:05.757Z,10.07
2017-11-15T09:22:34.027Z,8.70
2017-11-15T09:25:02.320Z,10.40
2017-11-15T09:27:30.635Z,9.20
2017-11-15T09:29:58.903Z,10.37
2017-11-15T09:32:27.227Z,9.20
2017-11-15T09:34:55.479Z,9.30
2017-11-15T09:37:23.812Z,9.43
2017-11-15T09:39:52.087Z,10.43
2017-11-15T09:42:20.384Z,10.60
2017-11-15T09:44:48.661Z,15.33
2017-11-15T09:47:16.953Z,9.33
2017-11-15T09:49:45.209Z,9.93
2017-11-15T09:52:13.493Z,10.80
2017-11-15T09:54:41.753Z,11.00
2017-11-15T09:57:10.061Z,10.63
2017-11-15T09:59:38.368Z,11.07
2017-11-15T10:02:06.694Z,9.60
2017-11-15T10:04:35.154Z,9.43
2017-11-15T10:07:04.282Z,12.07
2017-11-15T10:09:33.858Z,10.57
2017-11-15T10:12:02.102Z,11.13
2017-11-15T10:14:30.414Z,10.70
2017-11-15T10:17:04.841Z,10.90
2017-11-15T10:19:33.118Z,10.83
2017-11-15T10:22:01.379Z,12.00
2017-11-15T10:24:29.708Z,10.50
2017-11-15T10:26:58.001Z,11.17
2017-11-15T10:29:26.295Z,10.93
2017-11-15T10:31:54.569Z,11.60
2017-11-15T10:34:22.937Z,10.20
2017-11-15T10:36:51.252Z,10.50
2017-11-15T10:39:19.557Z,10.37
2017-11-15T10:41:47.869Z,10.80
2017-11-15T10:44:16.144Z,11.20
2017-11-15T10:46:44.476Z,11.00
2017-11-15T10:49:12.796Z,11.70
2017-11-15T10:51:41.236Z,11.17
2017-11-15T10:54:21.271Z,11.57
2017-11-15T10:56:49.570Z,12.30
2017-11-15T10:59:19.469Z,12.03
2017-11-15T11:01:47.778Z,15.30
2017-11-15T11:04:16.085Z,16.30
2017-11-15T11:06:44.364Z,16.23
2017-11-15T11:09:12.652Z,15.37
2017-11-15T11:11:41.012Z,14.00
2017-11-15T11:14:09.305Z,14.23
2017-11-15T11:16:37.590Z,13.67
2017-11-15T11:19:05.913Z,14.53
2017-11-15T11:21:34.183Z,14.20
2017-11-15T11:24:02.559Z,13.70
2017-11-15T11:26:30.881Z,12.77
2017-11-15T11:28:59.171Z,12.30
2017-11-15T11:31:27.544Z,12.27
2017-11-15T11:33:55.837Z,11.83
2017-11-15T11:36:24.126Z,12.00
2017-11-15T11:38:52.557Z,11.10
2017-11-15T11:41:20.859Z,11.67
2017-11-15T11:43:49.110Z,11.13
2017-11-15T11:46:17.390Z,10.73
2017-11-15T11:48:45.702Z,11.20
2017-11-15T11:51:13.986Z,10.97
2017-11-15T11:53:42.248Z,11.50
2017-11-15T11:56:10.536Z,11.30
2017-11-15T11:58:38.852Z,9.90
2017-11-15T12:01:07.166Z,11.40
2017-11-15T12:03:35.442Z,11.20
2017-11-15T12:06:03.778Z,11.63
2017-11-15T12:08:32.088Z,12.00
2017-11-15T12:11:00.348Z,11.63
2017-11-15T12:13:28.651Z,11.33
2017-11-15T12:15:56.976Z,11.60
2017-11-15T12:18:25.273Z,11.30
2017-11-15T12:20:53.599Z,12.20
2017-11-15T12:23:21.904Z,11.23
2017-11-15T12:25:50.191Z,12.03
2017-11-15T12:28:18.488Z,10.60
2017-11-15T12:30:46.865Z,11.20
2017-11-15T12:33:16.083Z,11.30
2017-11-15T12:35:44.389Z,10.60
2017-11-15T12:38:12.643Z,10.60
2017-11-15T12:40:40.933Z,10.37
2017-11-15T12:43:09.205Z,9.27
2017-11-15T12:45:37.747Z,9.97
2017-11-15T12:48:06.054Z,10.40
2017-11-15T12:50:34.328Z,9.17
2017-11-15T12:53:02.601Z,9.23
2017-11-15T12:55:30.986Z,9.60
2017-11-15T12:57:59.259Z,9.10
2017-11-15T13:00:27.632Z,11.57
2017-11-15T13:02:56.077Z,9.53
2017-11-15T13:05:24.405Z,9.10
2017-11-15T13:07:52.743Z,9.70
2017-11-15T13:10:21.027Z,9.70
2017-11-15T13:12:49.396Z,9.87
2017-11-15T13:15:17.707Z,9.90
2017-11-15T13:17:46.750Z,9.73
2017-11-15T13:20:15.079Z,9.80
2017-11-15T13:22:43.339Z,9.10
2017-11-15T13:25:12.069Z,9.13
2017-11-15T13:27:40.373Z,9.27
2017-11-15T13:30:08.740Z,9.23
2017-11-15T13:32:37.040Z,8.93
2017-11-15T13:35:05.388Z,9.13
2017-11-15T13:37:33.742Z,8.80
2017-11-15T13:40:01.973Z,9.50
2017-11-15T13:42:30.330Z,9.60
2017-11-15T13:44:58.700Z,9.77
2017-11-15T13:47:27.010Z,9.80
2017-11-15T13:49:55.333Z,9.23
2017-11-15T13:52:23.647Z,9.33
2017-11-15T13:54:52.212Z,8.60
2017-11-15T13:57:20.854Z,9.47
2017-11-15T13:59:49.117Z,8.80
2017-11-15T14:02:17.393Z,9.27
2017-11-15T14:04:45.660Z,9.33
2017-11-15T14:07:14.749Z,8.80
2017-11-15T14:09:43.056Z,9.30
2017-11-15T14:12:11.372Z,9.63
2017-11-15T14:14:39.688Z,9.70
2017-11-15T14:17:07.991Z,9.00
2017-11-15T14:19:36.325Z,9.60
2017-11-15T14:22:05.332Z,9.00
2017-11-15T14:24:33.658Z,9.90
2017-11-15T14:27:02.071Z,9.53
2017-11-15T14:29:30.317Z,9.80
2017-11-15T14:31:58.599Z,9.50
2017-11-15T14:34:26.855Z,9.30
2017-11-15T14:36:55.176Z,9.70
2017-11-15T14:39:24.114Z,10.30
2017-11-15T14:41:52.399Z,10.17
2017-11-15T14:44:20.685Z,10.83
2017-11-15T14:46:49.149Z,10.07
2017-11-15T14:49:17.429Z,9.90
2017-11-15T14:51:45.719Z,9.67
2017-11-15T14:54:14.037Z,9.47
2017-11-15T14:56:42.430Z,9.83
2017-11-15T14:59:10.749Z,12.87
2017-11-15T15:01:39.104Z,9.03
2017-11-15T15:04:07.450Z,10.00
2017-11-15T15:06:35.738Z,11.80
2017-11-15T15:09:04.046Z,10.30
2017-11-15T15:11:32.370Z,9.70
2017-11-15T15:14:00.724Z,9.77
2017-11-15T15:16:29.103Z,8.70
2017-11-15T15:18:57.403Z,7.80
2017-11-15T15:21:26.465Z,7.00
2017-11-15T15:23:54.744Z,5.37
2017-11-15T15:26:23.072Z,5.10
2017-11-15T15:28:51.332Z,5.10
2017-11-15T15:31:19.596Z,4.90
2017-11-15T15:33:50.461Z,4.50
2017-11-15T15:36:18.939Z,3.50
2017-11-15T15:38:47.212Z,5.60
2017-11-15T15:41:15.536Z,4.83
2017-11-15T15:43:43.769Z,4.43
2017-11-15T15:46:12.563Z,4.50
2017-11-15T15:48:40.826Z,4.60
2017-11-15T15:51:09.132Z,4.53
2017-11-15T15:53:37.432Z,4.33
2017-11-15T15:56:05.665Z,4.20
2017-11-15T15:58:33.975Z,4.37
2017-11-15T16:01:02.267Z,4.00
2017-11-15T16:03:30.642Z,3.90
2017-11-15T16:05:58.875Z,4.13
2017-11-15T16:08:27.223Z,5.07
2017-11-15T16:10:55.468Z,4.73
2017-11-15T16:13:23.780Z,5.00
2017-11-15T16:15:52.286Z,4.57
2017-11-15T16:18:20.573Z,4.67
2017-11-15T16:20:49.392Z,4.70
2017-11-15T16:23:17.776Z,7.53
2017-11-15T16:25:46.125Z,9.50
2017-11-15T16:28:14.398Z,10.13
2017-11-15T16:30:42.724Z,9.00
2017-11-15T16:33:10.983Z,8.73
2017-11-15T16:35:39.265Z,6.63
2017-11-15T16:38:07.569Z,4.70
2017-11-15T16:40:35.862Z,5.40
2017-11-15T16:43:04.074Z,5.70
2017-11-15T16:45:32.411Z,5.83
2017-11-15T16:48:00.620Z,6.00
2017-11-15T16:50:28.888Z,5.37
2017-11-15T16:52:57.213Z,6.27
2017-11-15T16:55:25.484Z,6.47
2017-11-15T16:57:53.877Z,5.80
2017-11-15T17:00:22.132Z,5.37
2017-11-15T17:02:50.417Z,4.57
2017-11-15T17:05:18.679Z,5.60
2017-11-15T17:07:46.969Z,4.73
2017-11-15T17:10:15.226Z,4.87
2017-11-15T17:12:43.779Z,5.43
2017-11-15T17:15:12.106Z,5.00
2017-11-15T17:17:40.377Z,4.40
2017-11-15T17:20:10.963Z,4.60
2017-11-15T17:22:39.255Z,5.57
2017-11-15T17:25:07.685Z,4.77
2017-11-15T17:27:35.952Z,5.00
2017-11-15T17:30:04.214Z,5.13
2017-11-15T17:32:33.488Z,6.80
2017-11-15T17:35:01.791Z,5.50
2017-11-15T17:37:30.864Z,6.80
2017-11-15T17:39:59.231Z,6.23
2017-11-15T17:42:27.549Z,5.90
2017-11-15T17:44:55.855Z,6.13
2017-11-15T17:47:24.157Z,7.30
2017-11-15T17:49:52.443Z,6.57
2017-11-15T17:52:20.740Z,9.73
2017-11-15T17:57:35.546Z,7.20
2017-11-15T18:00:03.973Z,7.33
2017-11-15T18:02:32.245Z,7.60
2017-11-15T18:05:00.584Z,4.50
2017-11-15T18:07:28.901Z,5.23
2017-11-15T18:09:57.173Z,4.40
2017-11-15T18:12:25.953Z,4.27
2017-11-15T18:14:54.223Z,4.00
2017-11-15T18:17:22.532Z,3.60
2017-11-15T18:19:50.812Z,4.20
2017-11-15T18:22:19.117Z,4.57
2017-11-15T18:24:47.405Z,3.77
2017-11-15T18:27:15.633Z,4.63
2017-11-15T18:29:43.911Z,4.70
2017-11-15T18:32:12.193Z,4.40
2017-11-15T18:34:40.552Z,7.30
2017-11-15T18:37:08.838Z,5.90
2017-11-15T18:39:37.096Z,5.30
2017-11-15T18:42:05.426Z,5.27
2017-11-15T18:44:33.675Z,4.87
2017-11-15T18:47:01.967Z,5.23
2017-11-15T18:49:30.208Z,5.27
2017-11-15T18:51:58.496Z,6.00
2017-11-15T18:54:26.765Z,5.00
2017-11-15T18:56:55.607Z,5.33
2017-11-15T18:59:23.993Z,5.60
2017-11-15T19:01:52.298Z,4.80
2017-11-15T19:04:20.599Z,4.33
2017-11-15T19:06:49.197Z,5.10
2017-11-15T19:09:17.597Z,5.63
2017-11-15T19:11:46.634Z,5.20
2017-11-15T19:14:15.301Z,4.13
2017-11-15T19:16:43.549Z,4.13
2017-11-15T19:19:13.138Z,4.60
2017-11-15T19:21:41.517Z,4.33
2017-11-15T19:24:09.831Z,4.90
2017-11-15T19:26:38.161Z,4.30
2017-11-15T19:29:06.440Z,4.20
2017-11-15T19:31:34.730Z,3.93
2017-11-15T19:34:03.006Z,5.10
2017-11-15T19:36:31.379Z,4.53
2017-11-15T19:38:59.657Z,5.37
2017-11-15T19:41:28.037Z,5.20
2017-11-15T19:43:56.336Z,5.17
2017-11-15T19:46:24.561Z,5.17
2017-11-15T19:48:52.881Z,5.00
2017-11-15T19:51:21.204Z,4.90
2017-11-15T19:53:49.463Z,4.60
2017-11-15T19:56:19.284Z,4.13
2017-11-15T19:58:47.579Z,4.93
2017-11-15T20:01:15.825Z,4.73
2017-11-15T20:03:44.161Z,4.93
2017-11-15T20:06:12.448Z,3.97
2017-11-15T20:08:40.713Z,3.90
2017-11-15T20:11:08.982Z,3.97
2017-11-15T20:13:37.297Z,3.80
2017-11-15T20:16:05.649Z,4.20
2017-11-15T20:18:33.910Z,4.83
2017-11-15T20:21:02.223Z,3.90
2017-11-15T20:23:30.526Z,4.03
2017-11-15T20:25:58.807Z,4.40
2017-11-15T20:28:27.106Z,4.57
2017-11-15T20:30:55.520Z,4.03
2017-11-15T20:33:23.765Z,3.80
2017-11-15T20:35:52.786Z,3.93
2017-11-15T20:38:21.057Z,3.70
2017-11-15T20:40:49.291Z,3.93
2017-11-15T20:43:17.563Z,4.43
2017-11-15T20:45:45.824Z,3.50
2017-11-15T20:48:14.122Z,3.37
2017-11-15T20:50:42.453Z,4.07
2017-11-15T20:53:10.738Z,3.03
2017-11-15T20:55:39.011Z,3.60
2017-11-15T20:58:07.355Z,4.20
2017-11-15T21:00:35.659Z,3.70
2017-11-15T21:03:03.980Z,3.83
2017-11-15T21:05:32.286Z,3.60
2017-11-15T21:08:00.552Z,4.10
2017-11-15T21:10:29.935Z,3.97
2017-11-15T21:12:58.273Z,4.73
2017-11-15T21:15:26.509Z,3.80
2017-11-15T21:17:54.788Z,3.87
2017-11-15T21:20:23.065Z,3.50
2017-11-15T21:22:51.329Z,4.17
2017-11-15T21:25:20.220Z,4.47
2017-11-15T21:27:48.483Z,4.43
2017-11-15T21:30:16.753Z,5.97
2017-11-15T21:32:45.034Z,4.70
2017-11-15T21:35:13.305Z,5.40
2017-11-15T21:37:41.594Z,5.27
2017-11-15T21:40:09.842Z,4.80
2017-11-15T21:42:38.137Z,4.87
2017-11-15T21:45:06.425Z,4.10
2017-11-15T21:47:34.703Z,3.63
2017-11-15T21:50:02.940Z,4.10
2017-11-15T21:52:31.243Z,4.10
2017-11-15T21:54:59.524Z,3.63
2017-11-15T21:57:27.930Z,3.50
2017-11-15T21:59:56.191Z,4.00
2017-11-15T22:02:24.497Z,4.07
2017-11-15T22:04:52.831Z,3.57
2017-11-15T22:07:21.206Z,3.43
2017-11-15T22:09:49.449Z,3.80
2017-11-15T22:12:17.801Z,3.57
2017-11-15T22:14:46.054Z,3.50
2017-11-15T22:17:14.413Z,4.10
2017-11-15T22:19:42.700Z,4.50
2017-11-15T22:22:10.976Z,4.30
2017-11-15T22:24:39.248Z,4.10
2017-11-15T22:27:07.542Z,4.20
2017-11-15T22:29:36.650Z,4.37
2017-11-15T22:32:04.908Z,6.10
2017-11-15T22:34:33.591Z,4.40
2017-11-15T22:37:01.864Z,4.53
2017-11-15T22:39:30.557Z,4.10
2017-11-15T22:41:58.812Z,4.27
2017-11-15T22:44:27.079Z,5.53
2017-11-15T22:46:56.102Z,6.97
2017-11-15T22:49:24.390Z,4.90
2017-11-15T22:51:52.669Z,5.53
2017-11-15T22:54:20.924Z,5.30
2017-11-15T22:56:49.213Z,4.90
2017-11-15T22:59:17.545Z,5.03
2017-11-15T23:01:45.840Z,4.80
2017-11-15T23:04:15.085Z,3.97
2017-11-15T23:06:43.418Z,4.30
2017-11-15T23:09:11.661Z,4.57
2017-11-15T23:11:39.957Z,5.03
2017-11-15T23:14:08.222Z,4.60
2017-11-15T23:16:36.514Z,4.70
2017-11-15T23:19:04.790Z,4.50
2017-11-15T23:21:33.123Z,5.00
2017-11-15T23:24:01.355Z,5.57
2017-11-15T23:26:29.628Z,5.27
2017-11-15T23:28:57.872Z,5.07
2017-11-15T23:31:26.152Z,5.20
2017-11-15T23:33:54.454Z,4.90
2017-11-15T23:36:22.724Z,5.93
2017-11-15T23:38:51.016Z,6.23
2017-11-15T23:41:19.285Z,6.27
2017-11-15T23:43:47.586Z,5.37
2017-11-15T23:46:15.827Z,5.47
2017-11-15T23:48:44.118Z,6.40
2017-11-15T23:51:12.433Z,5.50
2017-11-15T23:53:40.730Z,4.97
2017-11-15T23:56:09.041Z,5.30
2017-11-15T23:58:37.328Z,5.40
